Partenaires.

METAR :

LFQA 232130Z AUTO VRB03KT 9999 SCT015 BKN022 BKN027 14/13 Q1005


vue en direct sur l'aérodrome
mentions légales politique de confidentialité
Cochet Concept
cx